createdAt,value
2023-08-31T00:00:48.688Z,15.47
2023-08-31T00:03:37.699Z,15.45
2023-08-31T00:06:27.844Z,15.41
2023-08-31T00:09:16.485Z,15.40
2023-08-31T00:12:06.622Z,15.63
2023-08-31T00:14:55.158Z,15.69
2023-08-31T00:17:43.866Z,15.86
2023-08-31T00:20:34.322Z,15.88
2023-08-31T00:23:24.418Z,15.93
2023-08-31T00:26:12.910Z,15.94
2023-08-31T00:29:02.749Z,15.87
2023-08-31T00:31:52.206Z,15.70
2023-08-31T00:34:40.747Z,15.62
2023-08-31T00:37:29.957Z,15.63
2023-08-31T00:40:20.179Z,15.56
2023-08-31T00:43:09.680Z,15.41
2023-08-31T00:45:59.503Z,15.42
2023-08-31T00:48:48.440Z,15.33
2023-08-31T00:51:39.154Z,15.27
2023-08-31T00:54:28.053Z,15.27
2023-08-31T00:57:18.480Z,15.27
2023-08-31T01:00:09.331Z,15.40
2023-08-31T01:03:11.055Z,15.46
2023-08-31T01:06:12.994Z,15.38
2023-08-31T01:09:11.414Z,15.34
2023-08-31T01:12:06.887Z,15.37
2023-08-31T01:15:03.620Z,15.36
2023-08-31T01:17:57.401Z,15.36
2023-08-31T01:20:58.551Z,15.35
2023-08-31T01:23:54.718Z,15.38
2023-08-31T01:26:44.642Z,15.27
2023-08-31T01:29:33.749Z,15.38
2023-08-31T01:32:22.709Z,15.47
2023-08-31T01:35:12.539Z,15.38
2023-08-31T01:38:03.961Z,15.39
2023-08-31T01:41:02.648Z,15.37
2023-08-31T01:43:53.841Z,15.56
2023-08-31T01:46:43.415Z,15.43
2023-08-31T01:49:38.738Z,15.48
2023-08-31T01:52:27.467Z,15.58
2023-08-31T01:55:17.029Z,15.75
2023-08-31T01:58:07.141Z,15.70
2023-08-31T02:00:56.900Z,15.56
2023-08-31T02:03:45.518Z,15.59
2023-08-31T02:06:34.179Z,15.63
2023-08-31T02:09:22.791Z,15.62
2023-08-31T02:12:12.414Z,15.59
2023-08-31T02:15:02.281Z,15.63
2023-08-31T02:17:50.885Z,15.61
2023-08-31T02:20:39.929Z,15.60
2023-08-31T02:23:28.450Z,15.52
2023-08-31T02:26:17.061Z,15.53
2023-08-31T02:29:08.084Z,15.54
2023-08-31T02:31:58.261Z,15.32
2023-08-31T02:34:46.815Z,15.27
2023-08-31T02:37:35.343Z,15.31
2023-08-31T02:40:23.844Z,15.37
2023-08-31T02:43:12.691Z,15.42
2023-08-31T02:46:02.939Z,15.42
2023-08-31T02:48:53.115Z,15.33
2023-08-31T02:51:41.625Z,15.32
2023-08-31T02:54:30.235Z,15.28
2023-08-31T02:57:21.030Z,15.38
2023-08-31T03:00:13.972Z,15.30
2023-08-31T03:03:02.574Z,15.23
2023-08-31T03:05:58.125Z,15.33
2023-08-31T03:08:46.645Z,15.30
2023-08-31T03:11:36.054Z,15.29
2023-08-31T03:14:24.991Z,15.36
2023-08-31T03:17:13.766Z,15.40
2023-08-31T03:20:04.773Z,15.24
2023-08-31T03:22:54.899Z,15.28
2023-08-31T03:25:44.107Z,15.32
2023-08-31T03:28:32.637Z,15.24
2023-08-31T03:31:21.279Z,15.17
2023-08-31T03:34:09.889Z,15.17
2023-08-31T03:36:58.877Z,15.28
2023-08-31T03:39:49.725Z,15.20
2023-08-31T03:42:38.220Z,15.22
2023-08-31T03:45:28.032Z,15.35
2023-08-31T03:48:16.661Z,15.22
2023-08-31T03:51:05.361Z,15.19
2023-08-31T03:53:55.652Z,14.98
2023-08-31T03:56:46.728Z,14.98
2023-08-31T03:59:35.601Z,14.87
2023-08-31T04:02:25.178Z,14.81
2023-08-31T04:05:16.154Z,14.65
2023-08-31T04:08:07.224Z,14.63
2023-08-31T04:10:57.610Z,14.64
2023-08-31T04:13:47.459Z,14.68
2023-08-31T04:16:36.525Z,14.65
2023-08-31T04:19:25.126Z,14.61
2023-08-31T04:22:13.624Z,14.66
2023-08-31T04:25:02.097Z,14.61
2023-08-31T04:27:52.041Z,14.66
2023-08-31T04:30:43.116Z,14.68
2023-08-31T04:33:31.627Z,14.82
2023-08-31T04:36:20.314Z,14.94
2023-08-31T04:39:09.170Z,15.01
2023-08-31T04:41:57.680Z,15.04
2023-08-31T04:44:46.196Z,15.08
2023-08-31T04:47:36.141Z,14.96
2023-08-31T04:50:24.714Z,14.70
2023-08-31T04:53:13.718Z,14.61
2023-08-31T04:56:02.439Z,14.52
2023-08-31T04:58:51.144Z,14.32
2023-08-31T05:01:39.652Z,14.32
2023-08-31T05:04:30.500Z,14.24
2023-08-31T05:07:19.062Z,14.16
2023-08-31T05:10:10.030Z,14.27
2023-08-31T05:12:58.570Z,14.44
2023-08-31T05:15:48.057Z,14.45
2023-08-31T05:18:36.860Z,14.45
2023-08-31T05:21:26.808Z,14.44
2023-08-31T05:24:15.470Z,14.38
2023-08-31T05:27:04.085Z,14.55
2023-08-31T05:29:52.780Z,14.71
2023-08-31T05:32:41.364Z,14.90
2023-08-31T05:35:30.122Z,15.05
2023-08-31T05:38:20.305Z,15.21
2023-08-31T05:41:10.509Z,15.36
2023-08-31T05:43:59.681Z,15.41
2023-08-31T05:46:48.193Z,15.56
2023-08-31T05:49:36.694Z,15.62
2023-08-31T05:52:25.164Z,15.68
2023-08-31T05:55:15.282Z,15.82
2023-08-31T05:58:04.191Z,16.12
2023-08-31T06:00:52.707Z,16.25
2023-08-31T06:03:41.214Z,16.21
2023-08-31T06:06:29.723Z,16.16
2023-08-31T06:09:18.466Z,16.13
2023-08-31T06:12:09.276Z,16.18
2023-08-31T06:14:57.852Z,16.22
2023-08-31T06:17:46.425Z,16.24
2023-08-31T06:20:35.168Z,16.09
2023-08-31T06:23:23.754Z,16.30
2023-08-31T06:26:12.311Z,16.48
2023-08-31T06:29:02.165Z,16.75
2023-08-31T06:31:50.740Z,17.00
2023-08-31T06:34:39.477Z,17.00
2023-08-31T06:37:27.971Z,16.94
2023-08-31T06:40:16.738Z,16.83
2023-08-31T06:43:05.639Z,16.99
2023-08-31T06:45:58.462Z,16.98
2023-08-31T06:48:50.898Z,17.21
2023-08-31T06:51:39.664Z,17.37
2023-08-31T06:54:28.231Z,17.46
2023-08-31T06:57:16.800Z,17.70
2023-08-31T07:00:09.240Z,17.81
2023-08-31T07:02:59.257Z,17.76
2023-08-31T07:05:47.864Z,17.66
2023-08-31T07:08:38.151Z,17.56
2023-08-31T07:11:28.618Z,17.40
2023-08-31T07:14:17.146Z,17.27
2023-08-31T07:17:05.719Z,17.43
2023-08-31T07:19:55.611Z,17.44
2023-08-31T07:22:44.225Z,17.72
2023-08-31T07:25:32.724Z,17.93
2023-08-31T07:28:21.215Z,17.82
2023-08-31T07:31:10.085Z,17.96
2023-08-31T07:33:58.818Z,18.02
2023-08-31T07:36:48.971Z,18.50
2023-08-31T07:39:37.661Z,18.61
2023-08-31T07:42:26.279Z,18.52
2023-08-31T07:45:14.919Z,18.23
2023-08-31T07:48:04.166Z,18.32
2023-08-31T07:50:52.759Z,18.42
2023-08-31T07:53:42.595Z,18.35
2023-08-31T07:56:31.371Z,18.37
2023-08-31T07:59:20.283Z,18.37
2023-08-31T08:02:08.899Z,18.50
2023-08-31T08:04:57.401Z,18.37
2023-08-31T08:07:45.920Z,18.62
2023-08-31T08:10:35.766Z,18.85
2023-08-31T08:13:24.304Z,19.01
2023-08-31T08:16:13.011Z,19.31
2023-08-31T08:19:01.716Z,19.24
2023-08-31T08:21:50.260Z,19.32
2023-08-31T08:24:40.052Z,19.19
2023-08-31T08:27:32.693Z,18.88
2023-08-31T08:30:21.472Z,19.21
2023-08-31T08:33:11.815Z,19.46
2023-08-31T08:36:00.958Z,19.75
2023-08-31T08:38:49.480Z,19.89
2023-08-31T08:41:39.502Z,20.04
2023-08-31T08:44:34.787Z,20.24
2023-08-31T08:47:23.513Z,20.74
2023-08-31T08:50:13.983Z,21.26
2023-08-31T08:53:03.209Z,21.04
2023-08-31T08:55:51.784Z,20.65
2023-08-31T08:58:45.122Z,20.65
2023-08-31T09:01:37.425Z,20.69
2023-08-31T09:04:25.950Z,20.83
2023-08-31T09:07:14.492Z,20.71
2023-08-31T09:10:03.040Z,20.91
2023-08-31T09:12:52.125Z,21.12
2023-08-31T09:15:47.427Z,21.14
2023-08-31T09:18:37.363Z,20.91
2023-08-31T09:21:37.425Z,21.06
2023-08-31T09:24:26.695Z,21.28
2023-08-31T09:27:15.532Z,21.14
2023-08-31T09:30:04.722Z,21.38
2023-08-31T09:32:56.580Z,21.90
2023-08-31T09:35:52.854Z,21.80
2023-08-31T09:38:45.211Z,21.65
2023-08-31T09:41:34.908Z,22.15
2023-08-31T09:44:24.472Z,22.68
2023-08-31T09:47:15.410Z,22.87
2023-08-31T09:50:05.520Z,22.93
2023-08-31T09:52:59.254Z,22.52
2023-08-31T09:55:50.243Z,22.49
2023-08-31T09:58:39.326Z,22.79
2023-08-31T10:01:29.833Z,22.69
2023-08-31T10:04:19.541Z,22.29
2023-08-31T10:07:11.297Z,22.14
2023-08-31T10:10:03.293Z,21.82
2023-08-31T10:12:52.721Z,21.80
2023-08-31T10:15:43.365Z,21.71
2023-08-31T10:18:32.950Z,21.64
2023-08-31T10:21:22.103Z,21.61
2023-08-31T10:24:10.722Z,21.88
2023-08-31T10:27:20.382Z,21.62
2023-08-31T10:30:27.695Z,21.35
2023-08-31T10:33:24.878Z,21.01
2023-08-31T10:36:16.609Z,21.10
2023-08-31T10:39:13.176Z,21.33
2023-08-31T10:42:04.065Z,21.51
2023-08-31T10:44:52.579Z,21.67
2023-08-31T10:47:45.922Z,21.71
2023-08-31T10:50:47.031Z,22.19
2023-08-31T10:53:39.288Z,22.81
2023-08-31T10:56:32.378Z,22.98
2023-08-31T10:59:26.197Z,22.76
2023-08-31T11:02:41.922Z,22.53
2023-08-31T11:05:30.703Z,22.50
2023-08-31T11:08:28.215Z,22.21
2023-08-31T11:11:22.071Z,22.36
2023-08-31T11:14:11.811Z,22.25
2023-08-31T11:17:03.139Z,22.34
2023-08-31T11:19:51.813Z,22.26
2023-08-31T11:22:45.181Z,22.50
2023-08-31T11:25:34.033Z,22.54
2023-08-31T11:28:22.528Z,22.45
2023-08-31T11:31:11.037Z,22.85
2023-08-31T11:34:01.047Z,23.29
2023-08-31T11:36:50.487Z,23.44
2023-08-31T11:39:43.134Z,23.93
2023-08-31T11:42:37.881Z,23.95
2023-08-31T11:45:29.770Z,24.06
2023-08-31T11:48:18.963Z,24.84
2023-08-31T11:51:09.421Z,25.72
2023-08-31T11:54:00.557Z,26.26
2023-08-31T11:56:50.346Z,26.69
2023-08-31T11:59:41.157Z,27.27
2023-08-31T12:02:29.627Z,27.23
2023-08-31T12:05:18.173Z,27.25
2023-08-31T12:08:08.916Z,26.42
2023-08-31T12:10:58.087Z,24.96
2023-08-31T12:13:47.518Z,24.51
2023-08-31T12:16:37.662Z,23.71
2023-08-31T12:19:29.990Z,23.15
2023-08-31T12:22:18.664Z,23.63
2023-08-31T12:25:09.477Z,24.16
2023-08-31T12:27:58.032Z,23.93
2023-08-31T12:30:51.530Z,24.01
2023-08-31T12:33:40.207Z,24.59
2023-08-31T12:36:28.828Z,25.43
2023-08-31T12:39:17.853Z,26.11
2023-08-31T12:42:20.627Z,26.29
2023-08-31T12:45:12.339Z,26.68
2023-08-31T12:48:01.302Z,26.85
2023-08-31T12:50:50.103Z,27.01
2023-08-31T12:53:41.081Z,26.51
2023-08-31T12:56:31.583Z,27.08
2023-08-31T12:59:21.510Z,26.78
2023-08-31T13:02:11.966Z,26.94
2023-08-31T13:05:00.550Z,26.92
2023-08-31T13:07:49.089Z,26.88
2023-08-31T13:10:37.736Z,27.00
2023-08-31T13:13:27.071Z,26.46
2023-08-31T13:16:17.058Z,26.09
2023-08-31T13:19:05.845Z,26.08
2023-08-31T13:21:54.334Z,25.87
2023-08-31T13:24:42.945Z,25.52
2023-08-31T13:27:31.501Z,25.56
2023-08-31T13:30:20.121Z,25.13
2023-08-31T13:33:10.380Z,24.91
2023-08-31T13:36:00.121Z,24.41
2023-08-31T13:38:48.650Z,24.05
2023-08-31T13:41:37.176Z,23.77
2023-08-31T13:44:25.727Z,23.71
2023-08-31T13:47:14.260Z,24.15
2023-08-31T13:50:05.126Z,24.52
2023-08-31T13:52:54.151Z,25.36
2023-08-31T13:55:42.951Z,25.47
2023-08-31T13:58:31.679Z,25.03
2023-08-31T14:01:20.445Z,24.74
2023-08-31T14:04:08.995Z,24.72
2023-08-31T14:06:59.037Z,24.57
2023-08-31T14:09:47.608Z,24.59
2023-08-31T14:12:36.435Z,24.12
2023-08-31T14:15:25.043Z,23.93
2023-08-31T14:18:14.236Z,24.27
2023-08-31T14:21:04.245Z,23.85
2023-08-31T14:23:56.578Z,23.79
2023-08-31T14:26:46.864Z,23.67
2023-08-31T14:29:35.987Z,23.54
2023-08-31T14:32:24.703Z,23.47
2023-08-31T14:35:13.277Z,23.28
2023-08-31T14:38:01.793Z,23.06
2023-08-31T14:40:52.967Z,22.81
2023-08-31T14:43:41.719Z,22.71
2023-08-31T14:46:30.213Z,22.65
2023-08-31T14:49:18.707Z,22.35
2023-08-31T14:52:07.489Z,22.55
2023-08-31T14:54:57.451Z,22.77
2023-08-31T14:57:47.469Z,22.70
2023-08-31T15:00:36.029Z,22.62
2023-08-31T15:03:25.335Z,22.61
2023-08-31T15:06:14.210Z,22.21
2023-08-31T15:09:02.750Z,22.40
2023-08-31T15:11:51.679Z,22.60
2023-08-31T15:14:41.547Z,22.39
2023-08-31T15:17:30.324Z,22.19
2023-08-31T15:20:18.945Z,21.85
2023-08-31T15:23:07.573Z,21.75
2023-08-31T15:26:02.235Z,21.88
2023-08-31T15:28:53.214Z,21.89
2023-08-31T15:31:43.130Z,22.01
2023-08-31T15:34:32.061Z,21.96
2023-08-31T15:37:21.209Z,21.90
2023-08-31T15:40:10.909Z,21.92
2023-08-31T15:42:59.671Z,21.95
2023-08-31T15:45:49.304Z,21.89
2023-08-31T15:48:39.143Z,21.87
2023-08-31T15:51:30.192Z,21.88
2023-08-31T15:54:18.859Z,21.78
2023-08-31T15:57:07.473Z,21.58
2023-08-31T16:00:00.557Z,21.54
2023-08-31T16:02:49.256Z,21.26
2023-08-31T16:05:39.847Z,21.23
2023-08-31T16:08:29.669Z,21.00
2023-08-31T16:11:23.438Z,20.93
2023-08-31T16:14:12.703Z,20.78
2023-08-31T16:17:02.389Z,20.65
2023-08-31T16:19:51.581Z,20.61
2023-08-31T16:22:41.708Z,20.40
2023-08-31T16:25:30.214Z,20.31
2023-08-31T16:28:18.823Z,20.18
2023-08-31T16:31:07.981Z,20.04
2023-08-31T16:33:56.493Z,20.00
2023-08-31T16:36:45.399Z,20.04
2023-08-31T16:39:35.309Z,19.89
2023-08-31T16:42:23.990Z,19.71
2023-08-31T16:45:13.799Z,19.68
2023-08-31T16:48:02.851Z,19.52
2023-08-31T16:50:51.518Z,19.49
2023-08-31T16:53:40.563Z,19.45
2023-08-31T16:56:30.485Z,19.58
2023-08-31T16:59:19.172Z,19.38
2023-08-31T17:02:07.728Z,19.34
2023-08-31T17:04:57.289Z,19.37
2023-08-31T17:07:45.911Z,19.43
2023-08-31T17:10:34.447Z,19.13
2023-08-31T17:13:24.297Z,19.14
2023-08-31T17:16:13.841Z,18.88
2023-08-31T17:19:02.392Z,18.92
2023-08-31T17:21:50.990Z,18.67
2023-08-31T17:24:42.250Z,18.74
2023-08-31T17:27:31.700Z,18.75
2023-08-31T17:30:22.123Z,18.63
2023-08-31T17:33:10.765Z,18.57
2023-08-31T17:35:59.349Z,18.54
2023-08-31T17:38:48.438Z,18.53
2023-08-31T17:41:36.984Z,18.32
2023-08-31T17:44:26.045Z,18.39
2023-08-31T17:47:16.046Z,18.31
2023-08-31T17:50:05.208Z,18.31
2023-08-31T17:52:53.805Z,18.29
2023-08-31T17:55:42.414Z,18.37
2023-08-31T17:58:31.008Z,18.21
2023-08-31T18:01:19.712Z,18.10
2023-08-31T18:04:09.686Z,17.96
2023-08-31T18:06:58.202Z,17.96
2023-08-31T18:09:46.720Z,17.95
2023-08-31T18:12:35.301Z,17.93
2023-08-31T18:15:23.849Z,17.93
2023-08-31T18:18:12.453Z,17.94
2023-08-31T18:21:03.801Z,17.66
2023-08-31T18:23:52.380Z,17.82
2023-08-31T18:26:40.922Z,17.67
2023-08-31T18:29:29.798Z,17.58
2023-08-31T18:32:18.355Z,17.74
2023-08-31T18:35:07.822Z,17.39
2023-08-31T18:37:57.757Z,17.64
2023-08-31T18:40:46.246Z,17.79
2023-08-31T18:43:37.422Z,17.71
2023-08-31T18:46:25.989Z,17.78
2023-08-31T18:49:14.520Z,17.71
2023-08-31T18:52:03.085Z,17.74
2023-08-31T18:54:52.957Z,17.58
2023-08-31T18:57:41.464Z,17.66
2023-08-31T19:00:30.479Z,17.71
2023-08-31T19:03:19.411Z,17.60
2023-08-31T19:06:08.036Z,17.26
2023-08-31T19:08:56.665Z,17.28
2023-08-31T19:11:46.656Z,17.25
2023-08-31T19:14:35.194Z,17.29
2023-08-31T19:17:24.429Z,16.98
2023-08-31T19:20:15.774Z,17.12
2023-08-31T19:23:04.835Z,17.00
2023-08-31T19:26:02.427Z,16.83
2023-08-31T19:28:52.467Z,16.71
2023-08-31T19:31:43.784Z,16.65
2023-08-31T19:34:36.114Z,16.62
2023-08-31T19:37:25.321Z,16.68
2023-08-31T19:40:17.186Z,16.75
2023-08-31T19:43:06.225Z,16.75
2023-08-31T19:45:56.149Z,16.70
2023-08-31T19:48:44.798Z,16.84
2023-08-31T19:51:33.541Z,16.61
2023-08-31T19:54:22.042Z,16.75
2023-08-31T19:57:10.610Z,16.80
2023-08-31T19:59:59.142Z,16.79
2023-08-31T20:02:49.073Z,16.49
2023-08-31T20:05:37.990Z,16.61
2023-08-31T20:08:27.482Z,16.68
2023-08-31T20:11:16.246Z,16.67
2023-08-31T20:14:05.698Z,16.68
2023-08-31T20:16:54.202Z,16.59
2023-08-31T20:19:45.199Z,16.48
2023-08-31T20:22:34.559Z,16.56
2023-08-31T20:25:23.096Z,16.68
2023-08-31T20:28:12.059Z,16.79
2023-08-31T20:31:01.550Z,16.79
2023-08-31T20:33:50.183Z,16.73
2023-08-31T20:36:40.740Z,16.76
2023-08-31T20:39:29.464Z,16.80
2023-08-31T20:42:18.301Z,16.83
2023-08-31T20:45:11.595Z,16.75
2023-08-31T20:48:07.244Z,16.76
2023-08-31T20:51:04.239Z,16.78
2023-08-31T20:53:54.189Z,16.94
2023-08-31T20:56:42.765Z,16.97
2023-08-31T20:59:31.463Z,16.97
2023-08-31T21:02:20.235Z,17.07
2023-08-31T21:05:09.638Z,16.92
2023-08-31T21:07:58.261Z,16.89
2023-08-31T21:10:48.152Z,16.84
2023-08-31T21:13:37.925Z,16.89
2023-08-31T21:16:27.194Z,16.87
2023-08-31T21:19:15.819Z,16.87
2023-08-31T21:22:04.860Z,16.80
2023-08-31T21:24:53.356Z,16.55
2023-08-31T21:27:43.208Z,16.45
2023-08-31T21:30:36.211Z,16.38
2023-08-31T21:33:24.922Z,16.31
2023-08-31T21:36:13.461Z,16.38
2023-08-31T21:39:02.009Z,16.45
2023-08-31T21:41:50.468Z,16.50
2023-08-31T21:44:40.306Z,16.42
2023-08-31T21:47:28.917Z,16.36
2023-08-31T21:50:17.600Z,16.25
2023-08-31T21:53:08.732Z,16.34
2023-08-31T21:56:03.740Z,16.16
2023-08-31T21:58:52.274Z,16.27
2023-08-31T22:01:42.161Z,16.26
2023-08-31T22:04:31.023Z,16.13
2023-08-31T22:07:21.281Z,16.27
2023-08-31T22:10:13.086Z,16.32
2023-08-31T22:13:02.067Z,16.42
2023-08-31T22:15:53.483Z,16.30
2023-08-31T22:18:44.025Z,16.25
2023-08-31T22:21:32.957Z,16.35
2023-08-31T22:24:21.863Z,16.50
2023-08-31T22:27:10.802Z,16.56
2023-08-31T22:29:59.760Z,16.58
2023-08-31T22:32:48.860Z,16.60
2023-08-31T22:35:40.504Z,16.45
2023-08-31T22:38:28.972Z,16.39
2023-08-31T22:41:17.468Z,16.31
2023-08-31T22:44:06.346Z,16.36
2023-08-31T22:46:54.879Z,16.36
2023-08-31T22:49:43.530Z,16.29
2023-08-31T22:52:34.386Z,16.00
2023-08-31T22:55:23.143Z,15.90
2023-08-31T22:58:11.933Z,16.05
2023-08-31T23:01:00.829Z,16.06
2023-08-31T23:03:49.358Z,16.09
2023-08-31T23:06:37.899Z,16.19
2023-08-31T23:09:27.811Z,16.15
2023-08-31T23:12:16.791Z,16.07
2023-08-31T23:15:06.619Z,16.13
2023-08-31T23:17:55.204Z,16.11
2023-08-31T23:20:43.781Z,16.06
2023-08-31T23:23:32.389Z,16.09
2023-08-31T23:26:22.256Z,15.99
2023-08-31T23:29:12.519Z,15.95
2023-08-31T23:32:01.026Z,15.99
2023-08-31T23:34:49.513Z,15.93
2023-08-31T23:37:38.043Z,15.83
2023-08-31T23:40:26.587Z,15.69
2023-08-31T23:43:16.547Z,15.72
2023-08-31T23:46:05.396Z,15.56
2023-08-31T23:48:53.944Z,15.58
2023-08-31T23:51:42.449Z,15.66
2023-08-31T23:54:32.926Z,15.69
2023-08-31T23:57:21.473Z,15.58
